Time;durP1;ratioP1;P1;durP2;ratioP2;P2;SDS_P1;SDS_P2;PMS_P1;PMS_P2;Temp;Humidity;BMP_temperature;BMP_pressure;BME280_temperature;BME280_humidity;BME280_pressure;Samples;Min_cycle;Max_cycle;Signal;HPM_P1;HPM_P2
2022/07/21 00:01:11;;;;;;;5.32;2.95;;;29.30;96.70;;;;;;4872032;29;20048;-77
2022/07/21 00:03:39;;;;;;;3.30;3.00;;;29.20;96.70;;;;;;4871038;29;20052;-76
2022/07/21 00:06:07;;;;;;;3.97;3.00;;;29.30;96.70;;;;;;4871622;29;20040;-76
2022/07/21 00:08:36;;;;;;;3.80;2.60;;;29.30;96.70;;;;;;4872444;29;20499;-76
2022/07/21 00:11:04;;;;;;;3.70;3.03;;;29.30;96.70;;;;;;4869743;29;20045;-76
2022/07/21 00:13:33;;;;;;;5.28;2.97;;;29.10;96.70;;;;;;4872515;29;20102;-76
2022/07/21 00:16:03;;;;;;;5.30;3.05;;;29.00;96.70;;;;;;4856400;29;20056;-76
2022/07/21 00:18:31;;;;;;;3.60;2.95;;;28.90;96.70;;;;;;4871028;29;20449;-76
2022/07/21 00:21:00;;;;;;;3.17;2.88;;;28.90;96.70;;;;;;4870030;29;20052;-75
2022/07/21 00:23:29;;;;;;;3.78;2.72;;;29.00;96.70;;;;;;4871067;29;20057;-76
2022/07/21 00:25:57;;;;;;;3.42;2.55;;;29.00;96.70;;;;;;4855761;29;20061;-76
2022/07/21 00:28:25;;;;;;;4.45;2.65;;;28.90;96.70;;;;;;4886213;29;20080;-76
2022/07/21 00:30:54;;;;;;;3.55;2.88;;;29.00;96.70;;;;;;4872849;29;20051;-76
2022/07/21 00:33:23;;;;;;;4.60;2.63;;;29.00;96.70;;;;;;4871530;29;20052;-76
2022/07/21 00:35:52;;;;;;;5.10;2.90;;;28.90;96.70;;;;;;4869459;29;20049;-77
2022/07/21 00:38:20;;;;;;;4.35;2.97;;;28.80;96.70;;;;;;4872443;29;20053;-76
2022/07/21 00:40:48;;;;;;;3.22;2.85;;;28.80;96.70;;;;;;4871840;29;20049;-77
2022/07/21 00:43:17;;;;;;;3.42;2.63;;;28.90;96.70;;;;;;4852843;29;20053;-77
2022/07/21 00:45:45;;;;;;;4.55;3.20;;;29.00;96.70;;;;;;4855470;29;20048;-77
2022/07/21 00:48:13;;;;;;;5.85;3.30;;;28.80;96.70;;;;;;4872385;29;20049;-76
2022/07/21 00:50:43;;;;;;;5.45;2.85;;;28.70;96.70;;;;;;4869907;29;20045;-76
2022/07/21 00:53:11;;;;;;;2.95;2.42;;;28.60;96.70;;;;;;4873566;29;20060;-77
2022/07/21 00:55:42;;;;;;;3.58;2.75;;;28.60;96.70;;;;;;4871124;29;20093;-77
2022/07/21 00:58:11;;;;;;;3.28;2.97;;;28.60;96.70;;;;;;4873108;29;20124;-77
2022/07/21 01:00:39;;;;;;;4.60;3.13;;;28.60;96.70;;;;;;4855004;29;20045;-76
2022/07/21 01:03:08;;;;;;;3.10;2.80;;;28.60;96.70;;;;;;4885697;29;20055;-76
2022/07/21 01:05:36;;;;;;;3.60;2.92;;;28.50;96.70;;;;;;4869960;29;20057;-76
2022/07/21 01:08:06;;;;;;;3.75;3.15;;;28.50;96.70;;;;;;4871540;29;20084;-76
2022/07/21 01:10:34;;;;;;;5.07;3.42;;;28.40;96.70;;;;;;4871306;29;20097;-77
2022/07/21 01:13:03;;;;;;;4.18;2.70;;;28.40;96.70;;;;;;4873478;29;20045;-76
2022/07/21 01:15:31;;;;;;;3.83;3.42;;;28.40;96.70;;;;;;4870247;29;20041;-76
2022/07/21 01:18:01;;;;;;;4.10;3.03;;;28.40;96.70;;;;;;4868746;29;20053;-76
2022/07/21 01:20:33;;;;;;;4.60;3.17;;;28.40;96.70;;;;;;4883155;29;20531;-76
2022/07/21 01:23:03;;;;;;;3.45;2.72;;;28.40;96.70;;;;;;4886682;29;20454;-77
2022/07/21 01:25:32;;;;;;;3.28;2.97;;;28.50;96.70;;;;;;4869945;29;20065;-75
2022/07/21 01:28:00;;;;;;;4.72;2.80;;;28.50;96.70;;;;;;4871178;29;20055;-76
2022/07/21 01:30:28;;;;;;;3.53;2.83;;;28.60;96.70;;;;;;4867174;29;20049;-76
2022/07/21 01:32:57;;;;;;;4.97;2.88;;;28.40;96.70;;;;;;4872495;29;20068;-76
2022/07/21 01:35:25;;;;;;;4.05;2.95;;;28.30;96.70;;;;;;4868502;29;20049;-76
2022/07/21 01:37:55;;;;;;;4.43;2.95;;;28.30;96.70;;;;;;4872904;29;20049;-76
2022/07/21 01:43:11;;;;;;;2.97;2.55;;;28.00;96.70;;;;;;4867110;29;20755;-76
2022/07/21 01:45:40;;;;;;;4.72;2.97;;;28.10;96.70;;;;;;4858074;29;20054;-76
2022/07/21 01:48:09;;;;;;;3.17;2.95;;;28.20;96.70;;;;;;4873618;29;20060;-76
2022/07/21 01:50:38;;;;;;;3.15;2.85;;;28.10;96.70;;;;;;4887355;29;20152;-76
2022/07/21 01:53:06;;;;;;;3.47;2.60;;;28.00;96.70;;;;;;4874842;29;20048;-76
2022/07/21 01:55:36;;;;;;;7.80;3.70;;;28.10;96.70;;;;;;4875437;29;20044;-77
2022/07/21 01:58:04;;;;;;;3.50;3.20;;;28.00;96.70;;;;;;4874570;29;20044;-76
2022/07/21 02:00:33;;;;;;;3.05;2.75;;;28.00;96.70;;;;;;4875084;29;20049;-76
2022/07/21 02:03:01;;;;;;;5.40;3.00;;;27.80;96.70;;;;;;4875008;29;20045;-77
2022/07/21 02:05:29;;;;;;;3.78;2.97;;;27.90;96.70;;;;;;4875907;29;20045;-76
2022/07/21 02:07:57;;;;;;;4.07;3.03;;;27.90;96.70;;;;;;4888703;29;20060;-76
2022/07/21 02:10:26;;;;;;;5.95;3.38;;;27.80;96.70;;;;;;4874620;29;20095;-76
2022/07/21 02:12:55;;;;;;;5.28;3.20;;;27.80;96.70;;;;;;4873115;29;20049;-76
2022/07/21 02:15:24;;;;;;;3.78;2.88;;;27.80;96.70;;;;;;4873837;29;20105;-76
2022/07/21 02:17:52;;;;;;;4.20;2.97;;;27.70;96.70;;;;;;4874466;29;20492;-77
2022/07/21 02:20:20;;;;;;;4.95;3.30;;;27.60;96.70;;;;;;4873332;29;20508;-76
2022/07/21 02:22:48;;;;;;;6.70;3.50;;;27.50;96.70;;;;;;4888307;29;20045;-76
2022/07/21 02:25:17;;;;;;;6.43;3.08;;;27.40;96.70;;;;;;4872921;29;20580;-76
2022/07/21 02:27:46;;;;;;;5.72;3.20;;;27.50;96.70;;;;;;4857614;29;20053;-77
2022/07/21 02:30:16;;;;;;;8.98;2.70;;;27.40;96.70;;;;;;4873358;29;20053;-75
2022/07/21 02:32:44;;;;;;;4.85;3.00;;;27.50;96.70;;;;;;4869531;29;20045;-74
2022/07/21 02:35:12;;;;;;;3.83;2.88;;;27.50;96.70;;;;;;4872944;29;20087;-74
2022/07/21 02:37:40;;;;;;;3.60;2.72;;;27.40;96.70;;;;;;4873481;29;20096;-74
2022/07/21 02:40:10;;;;;;;4.03;2.78;;;27.40;96.70;;;;;;4874550;29;20049;-75
2022/07/21 02:42:42;;;;;;;6.95;3.28;;;27.30;96.70;;;;;;4861414;29;20531;-77
2022/07/21 02:45:10;;;;;;;5.40;3.05;;;27.20;96.70;;;;;;4857993;29;20059;-77
2022/07/21 02:47:51;;;;;;;5.03;3.42;;;27.00;96.70;;;;;;4888096;29;20080;-76
2022/07/21 02:50:20;;;;;;;3.90;3.20;;;27.00;96.70;;;;;;4870075;29;20361;-74
2022/07/21 02:52:48;;;;;;;5.72;2.95;;;27.10;96.70;;;;;;4875309;29;20064;-74
2022/07/21 02:55:17;;;;;;;5.30;2.92;;;27.10;96.70;;;;;;4872319;29;20397;-75
2022/07/21 02:57:45;;;;;;;5.20;3.08;;;27.10;96.70;;;;;;4874375;29;20049;-74
2022/07/21 03:00:15;;;;;;;4.72;3.35;;;27.00;96.70;;;;;;4872316;29;20110;-74
2022/07/21 03:02:43;;;;;;;5.13;3.50;;;27.00;96.70;;;;;;4874686;29;20109;-74
2022/07/21 03:05:13;;;;;;;5.03;2.97;;;26.90;96.70;;;;;;4872446;29;20037;-74
2022/07/21 03:07:41;;;;;;;3.90;3.33;;;26.90;96.70;;;;;;4871900;29;20064;-74
2022/07/21 03:10:09;;;;;;;4.45;3.15;;;27.00;96.70;;;;;;4873013;29;20045;-74
2022/07/21 03:12:38;;;;;;;4.07;3.10;;;27.10;96.70;;;;;;4857343;29;20092;-73
2022/07/21 03:15:07;;;;;;;3.40;3.10;;;26.90;96.70;;;;;;4874065;29;20045;-74
2022/07/21 03:17:35;;;;;;;4.82;2.88;;;26.90;96.70;;;;;;4875372;29;20045;-74
2022/07/21 03:20:04;;;;;;;5.68;3.15;;;26.90;96.70;;;;;;4873173;29;20060;-74
2022/07/21 03:22:34;;;;;;;4.57;3.10;;;26.90;96.70;;;;;;4870794;29;20051;-75
2022/07/21 03:25:05;;;;;;;3.28;2.65;;;27.00;96.70;;;;;;4872766;29;20121;-74
2022/07/21 03:27:36;;;;;;;6.15;2.97;;;26.90;96.70;;;;;;4884324;29;20084;-74
2022/07/21 03:30:07;;;;;;;4.30;2.92;;;26.80;96.70;;;;;;4871935;29;20056;-76
2022/07/21 03:32:36;;;;;;;4.03;2.83;;;26.80;96.70;;;;;;4857007;29;20064;-76
2022/07/21 03:35:06;;;;;;;3.72;2.88;;;26.70;96.70;;;;;;4856414;29;20505;-76
2022/07/21 03:37:41;;;;;;;4.93;2.75;;;26.70;96.70;;;;;;4855252;29;20049;-76
2022/07/21 03:40:10;;;;;;;3.90;2.53;;;26.70;96.70;;;;;;4871325;29;20453;-76
2022/07/21 03:42:39;;;;;;;4.35;2.58;;;26.60;96.70;;;;;;4872439;29;20048;-76
2022/07/21 03:45:08;;;;;;;2.97;2.63;;;26.60;96.70;;;;;;4871868;29;20083;-77
2022/07/21 03:47:37;;;;;;;4.18;2.45;;;26.70;96.70;;;;;;4873327;29;20048;-76
2022/07/21 03:50:06;;;;;;;4.43;2.80;;;26.60;96.70;;;;;;4870348;29;20147;-76
2022/07/21 03:52:36;;;;;;;3.78;2.85;;;26.50;96.70;;;;;;4877067;29;20128;-77
2022/07/21 03:55:14;;;;;;;2.45;2.25;;;26.50;96.70;;;;;;4871882;29;20041;-77
2022/07/21 03:57:46;;;;;;;6.07;2.90;;;26.40;96.70;;;;;;4866576;29;20061;-76
2022/07/21 04:00:18;;;;;;;3.50;2.45;;;26.40;96.70;;;;;;4870677;29;20044;-76
2022/07/21 04:02:47;;;;;;;2.78;2.50;;;26.30;96.70;;;;;;4871316;29;20045;-76
2022/07/21 04:05:16;;;;;;;3.40;3.10;;;26.40;96.70;;;;;;4873985;29;20045;-76
2022/07/21 04:07:48;;;;;;;5.13;3.00;;;26.40;96.70;;;;;;4870932;29;20044;-76
2022/07/21 04:10:18;;;;;;;4.00;3.15;;;26.50;96.70;;;;;;4873031;29;20072;-76
2022/07/21 04:12:46;;;;;;;8.25;3.50;;;26.50;96.70;;;;;;4872336;29;20049;-77
2022/07/21 04:15:14;;;;;;;4.47;3.33;;;26.40;96.70;;;;;;4871908;29;20060;-76
2022/07/21 04:17:43;;;;;;;9.73;3.20;;;26.50;96.70;;;;;;4870845;29;20061;-76
2022/07/21 04:20:13;;;;;;;7.53;3.28;;;26.40;96.70;;;;;;4871626;29;20093;-77
2022/07/21 04:22:43;;;;;;;5.70;3.30;;;26.50;96.70;;;;;;4854051;29;20053;-74
2022/07/21 04:25:14;;;;;;;7.63;3.58;;;26.40;96.70;;;;;;4871158;29;20057;-75
2022/07/21 04:27:43;;;;;;;6.63;3.15;;;26.50;96.70;;;;;;4870903;29;20096;-77
2022/07/21 04:30:13;;;;;;;6.43;3.22;;;26.50;96.70;;;;;;4856225;29;20069;-77
2022/07/21 04:32:42;;;;;;;4.40;2.78;;;26.50;96.70;;;;;;4870668;29;20053;-77
2022/07/21 04:35:10;;;;;;;4.82;3.33;;;26.50;96.70;;;;;;4872950;29;20055;-77
2022/07/21 04:37:38;;;;;;;5.43;3.28;;;26.50;96.70;;;;;;4869079;29;20055;-77
2022/07/21 04:40:09;;;;;;;5.03;3.70;;;26.50;96.70;;;;;;4871403;29;20045;-77
2022/07/21 04:42:39;;;;;;;7.93;3.72;;;26.60;96.70;;;;;;4874706;29;20073;-75
2022/07/21 04:45:09;;;;;;;4.03;3.20;;;26.60;96.70;;;;;;4873434;29;20045;-75
2022/07/21 04:47:45;;;;;;;7.82;3.42;;;26.50;96.70;;;;;;4873501;29;20055;-76
2022/07/21 04:50:14;;;;;;;4.03;3.22;;;26.40;96.70;;;;;;4872996;29;20060;-76
2022/07/21 04:52:42;;;;;;;5.60;3.70;;;26.50;96.70;;;;;;4866859;29;20053;-76
2022/07/21 04:55:12;;;;;;;9.75;4.65;;;26.60;96.70;;;;;;4872401;29;20065;-77
2022/07/21 04:57:43;;;;;;;8.38;4.43;;;26.40;96.70;;;;;;4876288;29;20133;-77
2022/07/21 05:00:13;;;;;;;4.15;3.58;;;26.30;96.70;;;;;;4872176;29;20145;-76
2022/07/21 05:02:41;;;;;;;4.88;3.50;;;26.40;96.70;;;;;;4871808;29;20420;-77
2022/07/21 05:05:10;;;;;;;6.40;3.40;;;26.40;96.70;;;;;;4870934;29;20101;-75
2022/07/21 05:07:38;;;;;;;7.72;3.22;;;26.50;96.70;;;;;;4871097;29;20053;-75
2022/07/21 05:10:08;;;;;;;6.75;3.70;;;26.40;96.70;;;;;;4871775;29;20429;-75
2022/07/21 05:12:36;;;;;;;4.65;3.30;;;26.30;96.70;;;;;;4872284;29;20465;-75
2022/07/21 05:15:09;;;;;;;5.22;3.40;;;26.40;96.70;;;;;;4870386;29;20140;-75
2022/07/21 05:17:37;;;;;;;5.18;3.40;;;26.50;96.70;;;;;;4859461;29;20045;-75
2022/07/21 05:20:07;;;;;;;4.35;3.58;;;26.50;96.70;;;;;;4874210;29;20049;-75
2022/07/21 05:22:35;;;;;;;6.63;3.15;;;26.50;96.70;;;;;;4872733;29;20131;-75
2022/07/21 05:25:04;;;;;;;5.05;3.88;;;26.50;96.70;;;;;;4873626;29;20084;-75
2022/07/21 05:27:33;;;;;;;4.78;3.60;;;26.60;96.70;;;;;;4875986;29;20105;-75
2022/07/21 05:30:01;;;;;;;5.75;3.75;;;26.60;96.70;;;;;;4858319;29;20503;-75
2022/07/21 05:32:31;;;;;;;4.25;3.38;;;26.80;96.70;;;;;;4873671;29;20059;-75
2022/07/21 05:34:59;;;;;;;3.97;3.58;;;26.80;96.70;;;;;;4858232;29;20143;-75
2022/07/21 05:37:27;;;;;;;7.45;4.45;;;26.80;96.70;;;;;;4872958;29;20481;-75
2022/07/21 05:39:56;;;;;;;7.05;3.78;;;26.80;96.70;;;;;;4873665;29;20041;-75
2022/07/21 05:42:24;;;;;;;7.75;3.85;;;26.60;96.70;;;;;;4875760;29;20073;-76
2022/07/21 05:44:52;;;;;;;6.60;3.83;;;26.70;96.70;;;;;;4874548;29;20093;-76
2022/07/21 05:47:20;;;;;;;6.78;3.80;;;26.70;96.70;;;;;;4875735;29;20136;-75
2022/07/21 05:49:50;;;;;;;9.98;3.50;;;26.70;96.70;;;;;;4873419;29;20100;-75
2022/07/21 05:52:18;;;;;;;5.28;3.13;;;26.70;96.70;;;;;;4872253;29;21275;-75
2022/07/21 05:54:48;;;;;;;5.38;3.35;;;26.70;96.70;;;;;;4873228;29;20160;-75
2022/07/21 05:57:17;;;;;;;7.82;3.20;;;26.70;96.70;;;;;;4871190;29;20059;-75
2022/07/21 05:59:46;;;;;;;5.80;3.10;;;26.80;96.70;;;;;;4873563;29;20124;-75
2022/07/21 06:02:14;;;;;;;6.57;3.80;;;26.80;96.70;;;;;;4874107;29;20045;-75
2022/07/21 06:04:42;;;;;;;6.60;3.70;;;26.90;96.70;;;;;;4873561;29;20049;-75
2022/07/21 06:07:12;;;;;;;7.47;3.83;;;27.00;96.70;;;;;;4872447;29;20067;-75
2022/07/21 06:09:40;;;;;;;7.28;3.60;;;26.90;96.70;;;;;;4873318;29;20077;-76
2022/07/21 06:12:09;;;;;;;6.97;3.28;;;27.00;96.70;;;;;;4875055;29;20536;-75
2022/07/21 06:14:37;;;;;;;7.07;4.07;;;27.00;96.70;;;;;;4874318;29;20045;-75
2022/07/21 06:17:05;;;;;;;6.13;3.67;;;27.20;96.70;;;;;;4874594;29;20064;-74
2022/07/21 06:19:34;;;;;;;4.78;3.42;;;27.20;96.70;;;;;;4873534;29;20101;-75
2022/07/21 06:22:03;;;;;;;5.60;3.70;;;27.20;96.70;;;;;;4888362;29;20445;-74
2022/07/21 06:24:33;;;;;;;9.35;3.80;;;27.20;96.70;;;;;;4871798;29;20060;-75
2022/07/21 06:27:01;;;;;;;6.38;3.97;;;27.20;96.70;;;;;;4874078;29;20069;-75
2022/07/21 06:29:33;;;;;;;4.63;3.40;;;27.20;96.70;;;;;;4888454;29;20560;-76
2022/07/21 06:32:01;;;;;;;5.45;3.40;;;27.20;96.70;;;;;;4868277;29;20105;-75
2022/07/21 06:34:30;;;;;;;5.82;3.45;;;27.30;96.70;;;;;;4874277;29;20545;-76
2022/07/21 06:36:59;;;;;;;7.85;3.70;;;27.30;96.70;;;;;;4867472;29;20044;-75
2022/07/21 06:39:27;;;;;;;5.75;3.78;;;27.40;96.70;;;;;;4870454;29;20394;-76
2022/07/21 06:41:57;;;;;;;5.22;3.42;;;27.40;96.70;;;;;;4854389;29;20045;-77
2022/07/21 06:44:28;;;;;;;9.10;3.78;;;27.50;96.70;;;;;;4871067;29;20575;-76
2022/07/21 06:46:57;;;;;;;7.97;4.50;;;27.60;96.70;;;;;;4872639;29;20132;-77
2022/07/21 06:49:26;;;;;;;5.78;3.90;;;27.60;96.70;;;;;;4874610;29;20053;-78
2022/07/21 06:51:54;;;;;;;4.97;4.00;;;27.60;96.70;;;;;;4873712;29;20068;-77
2022/07/21 06:54:22;;;;;;;6.22;4.32;;;27.80;96.70;;;;;;4871910;29;20053;-77
2022/07/21 06:56:51;;;;;;;6.50;3.92;;;27.80;96.70;;;;;;4872219;29;20052;-79
2022/07/21 06:59:21;;;;;;;5.70;4.97;;;27.60;96.70;;;;;;4874465;29;20548;-77
2022/07/21 07:01:50;;;;;;;5.30;4.80;;;27.60;96.70;;;;;;4887838;29;20057;-76
2022/07/21 07:04:18;;;;;;;5.28;4.78;;;27.60;96.70;;;;;;4872239;29;20056;-78
2022/07/21 07:06:51;;;;;;;7.97;5.03;;;27.70;96.70;;;;;;4887888;29;20049;-76
2022/07/21 07:09:20;;;;;;;8.50;5.00;;;27.90;96.70;;;;;;4870784;29;20145;-79
2022/07/21 07:11:51;;;;;;;6.03;5.32;;;28.10;96.70;;;;;;4871697;29;20654;-79
2022/07/21 07:14:41;;;;;;;7.10;5.07;;;28.00;96.70;;;;;;4888260;29;20072;-80
2022/07/21 07:17:15;;;;;;;9.60;4.60;;;28.10;96.70;;;;;;4872523;29;20045;-79
2022/07/21 07:19:43;;;;;;;9.85;4.60;;;28.20;96.70;;;;;;4866917;29;20523;-79
2022/07/21 07:22:12;;;;;;;10.80;5.18;;;28.30;96.70;;;;;;4863321;29;20048;-79
2022/07/21 07:24:41;;;;;;;9.35;4.70;;;28.40;96.70;;;;;;4871068;29;20075;-79
2022/07/21 07:27:09;;;;;;;8.07;4.55;;;28.40;96.70;;;;;;4875016;29;20539;-79
2022/07/21 07:29:38;;;;;;;8.15;4.78;;;28.60;96.70;;;;;;4873643;29;20473;-79
2022/07/21 07:32:10;;;;;;;5.60;4.07;;;28.60;96.70;;;;;;4875456;29;20048;-79
2022/07/21 07:34:39;;;;;;;10.45;4.63;;;28.80;96.70;;;;;;4872181;29;20139;-79
2022/07/21 07:37:07;;;;;;;7.30;4.07;;;28.80;96.70;;;;;;4873826;29;20696;-79
2022/07/21 07:39:37;;;;;;;7.32;4.30;;;28.80;96.70;;;;;;4871439;29;20084;-78
2022/07/21 07:42:06;;;;;;;8.23;4.03;;;28.90;96.70;;;;;;4875006;29;20048;-79
2022/07/21 07:44:35;;;;;;;9.75;4.78;;;28.90;96.70;;;;;;4872525;29;20069;-77
2022/07/21 07:47:03;;;;;;;8.63;5.03;;;29.00;96.70;;;;;;4857480;29;20053;-80
2022/07/21 07:49:33;;;;;;;9.10;5.97;;;29.10;96.70;;;;;;4872878;29;20095;-76
2022/07/21 07:52:02;;;;;;;8.70;6.43;;;29.20;96.70;;;;;;4872701;29;20493;-78
2022/07/21 07:54:31;;;;;;;7.95;6.82;;;29.20;96.70;;;;;;4854137;29;20045;-77
2022/07/21 07:56:59;;;;;;;11.20;8.38;;;29.30;96.70;;;;;;4873484;29;20080;-78
2022/07/21 07:59:28;;;;;;;13.10;9.82;;;29.40;96.70;;;;;;4870978;29;20060;-78
2022/07/21 08:01:56;;;;;;;10.38;8.65;;;29.50;96.70;;;;;;4872667;29;20045;-78
2022/07/21 08:04:25;;;;;;;10.00;8.95;;;29.60;96.70;;;;;;4870159;29;20140;-78
2022/07/21 08:06:55;;;;;;;13.82;11.75;;;29.60;96.70;;;;;;4872624;29;20124;-78
2022/07/21 08:09:23;;;;;;;14.07;12.30;;;29.60;96.70;;;;;;4869068;29;20064;-77
2022/07/21 08:11:52;;;;;;;18.70;12.05;;;29.60;96.70;;;;;;4873406;29;20084;-78
2022/07/21 08:14:20;;;;;;;12.68;11.43;;;29.60;96.70;;;;;;4867832;29;20064;-79
2022/07/21 08:16:49;;;;;;;13.68;12.18;;;29.60;96.70;;;;;;4872164;29;20572;-80
2022/07/21 08:19:17;;;;;;;15.43;13.82;;;29.60;96.70;;;;;;4869085;29;20102;-79
2022/07/21 08:21:46;;;;;;;18.25;14.43;;;29.70;96.70;;;;;;4887238;29;20055;-79
2022/07/21 08:24:36;;;;;;;15.32;13.52;;;29.70;96.70;;;;;;4883450;29;20435;-78
2022/07/21 08:27:04;;;;;;;14.48;12.98;;;29.80;96.70;;;;;;4870632;29;20072;-78
2022/07/21 08:29:33;;;;;;;17.77;13.77;;;29.90;96.70;;;;;;4859038;29;20055;-79
2022/07/21 08:32:02;;;;;;;14.02;11.80;;;29.90;96.70;;;;;;4869940;29;20059;-78
2022/07/21 08:34:30;;;;;;;14.55;12.73;;;30.00;96.70;;;;;;4854883;29;20041;-79
2022/07/21 08:36:59;;;;;;;18.10;12.93;;;30.10;96.70;;;;;;4870882;29;20480;-79
2022/07/21 08:39:27;;;;;;;16.45;12.65;;;30.10;96.70;;;;;;4870237;29;20072;-80
2022/07/21 08:41:59;;;;;;;15.95;12.18;;;30.20;96.70;;;;;;4854733;29;20051;-79
2022/07/21 08:44:28;;;;;;;14.10;12.15;;;30.40;96.70;;;;;;4868850;29;20049;-80
2022/07/21 08:46:57;;;;;;;16.58;11.88;;;30.40;96.70;;;;;;4870267;29;20534;-79
2022/07/21 08:49:28;;;;;;;15.65;11.98;;;30.40;96.70;;;;;;4872829;29;20083;-78
2022/07/21 08:51:57;;;;;;;12.85;11.15;;;30.40;96.70;;;;;;4872386;29;20045;-79
2022/07/21 08:54:26;;;;;;;14.82;11.07;;;30.50;96.70;;;;;;4872167;29;20199;-79
2022/07/21 08:56:56;;;;;;;13.25;10.65;;;30.60;96.70;;;;;;4889724;29;20503;-79
2022/07/21 08:59:26;;;;;;;11.95;8.82;;;30.70;96.70;;;;;;4876625;29;20052;-78
2022/07/21 09:01:58;;;;;;;10.45;8.57;;;30.80;96.70;;;;;;4877218;29;20055;-78
2022/07/21 09:04:29;;;;;;;11.15;8.77;;;30.80;96.70;;;;;;4875486;29;20052;-78
2022/07/21 09:07:06;;;;;;;10.23;9.23;;;30.80;96.70;;;;;;4873198;29;20060;-78
2022/07/21 09:09:36;;;;;;;9.63;8.57;;;30.80;96.70;;;;;;4877784;29;20047;-78
2022/07/21 09:12:07;;;;;;;10.07;8.90;;;30.90;96.70;;;;;;4877670;29;20049;-77
2022/07/21 09:14:36;;;;;;;10.10;9.20;;;31.00;96.70;;;;;;4887209;29;20060;-78
2022/07/21 09:17:06;;;;;;;11.82;9.50;;;31.10;96.70;;;;;;4872320;29;20555;-78
2022/07/21 09:19:38;;;;;;;12.15;10.00;;;31.10;96.70;;;;;;4869253;29;20472;-79
2022/07/21 09:22:12;;;;;;;11.38;9.48;;;31.10;96.70;;;;;;4860050;29;20044;-80
2022/07/21 09:24:41;;;;;;;9.32;8.32;;;31.20;96.70;;;;;;4857248;29;20152;-79
2022/07/21 09:27:13;;;;;;;10.27;9.27;;;31.40;96.70;;;;;;4873628;29;20048;-80
2022/07/21 09:29:44;;;;;;;10.40;9.38;;;31.50;96.70;;;;;;4868215;29;20140;-81
2022/07/21 09:32:20;;;;;;;10.25;8.82;;;31.60;96.70;;;;;;4877118;29;20127;-80
2022/07/21 09:34:51;;;;;;;11.27;10.10;;;31.70;96.70;;;;;;4873982;29;20041;-79
2022/07/21 09:37:20;;;;;;;10.25;9.32;;;31.70;96.70;;;;;;4875506;29;20053;-78
2022/07/21 09:39:51;;;;;;;10.70;9.63;;;31.80;96.70;;;;;;4873848;29;20054;-79
2022/07/21 09:42:27;;;;;;;10.23;9.32;;;31.80;96.70;;;;;;4875563;29;20059;-79
2022/07/21 09:44:57;;;;;;;10.73;9.45;;;31.90;96.70;;;;;;4875038;29;20061;-78
2022/07/21 09:47:28;;;;;;;12.38;9.88;;;32.00;96.70;;;;;;4889524;29;20049;-77
2022/07/21 09:49:57;;;;;;;12.52;10.50;;;32.20;96.70;;;;;;4883486;29;20420;-78
2022/07/21 09:52:47;;;;;;;11.02;9.85;;;32.10;96.70;;;;;;4874444;29;20052;-80
2022/07/21 09:55:16;;;;;;;10.25;9.35;;;32.20;96.70;;;;;;4871959;29;20053;-79
2022/07/21 09:57:46;;;;;;;9.75;8.77;;;32.30;96.70;;;;;;4874991;29;20060;-79
2022/07/21 10:00:18;;;;;;;12.85;9.70;;;32.30;96.70;;;;;;4876201;29;20053;-79
2022/07/21 10:02:48;;;;;;;9.85;9.05;;;32.30;96.70;;;;;;4872135;29;20063;-80
2022/07/21 10:05:20;;;;;;;9.65;8.35;;;32.40;96.70;;;;;;4872830;29;20467;-75
2022/07/21 10:07:57;;;;;;;10.50;8.57;;;32.60;96.70;;;;;;4873600;29;20080;-75
2022/07/21 10:10:26;;;;;;;9.75;8.65;;;32.60;96.70;;;;;;4879323;29;20041;-75
2022/07/21 10:13:16;;;;;;;9.40;8.30;;;32.70;96.70;;;;;;4884785;29;20056;-77
2022/07/21 10:15:46;;;;;;;9.68;8.55;;;32.70;96.70;;;;;;4866811;29;20053;-77
2022/07/21 10:18:33;;;;;;;9.25;8.00;;;32.80;96.70;;;;;;4873240;29;20072;-77
2022/07/21 10:21:10;;;;;;;8.80;7.90;;;33.00;96.70;;;;;;4861323;29;20065;-76
2022/07/21 10:23:41;;;;;;;10.93;9.02;;;33.00;96.70;;;;;;4873206;29;20072;-76
2022/07/21 10:26:11;;;;;;;11.18;10.18;;;33.20;96.70;;;;;;4872056;29;20057;-76
2022/07/21 10:28:43;;;;;;;11.80;9.93;;;33.20;96.70;;;;;;4874782;29;20049;-76
2022/07/21 10:31:17;;;;;;;9.32;8.50;;;33.30;96.70;;;;;;4856418;29;20058;-76
2022/07/21 10:33:56;;;;;;;7.60;6.90;;;33.30;96.70;;;;;;4872705;29;20048;-76
2022/07/21 10:36:45;;;;;;;8.10;7.15;;;33.40;96.70;;;;;;4871039;29;20057;-76
2022/07/21 10:39:23;;;;;;;8.05;7.20;;;33.70;96.70;;;;;;4873821;29;20055;-75
2022/07/21 10:41:53;;;;;;;7.30;6.60;;;33.80;96.70;;;;;;4856585;29;20064;-76
2022/07/21 10:44:44;;;;;;;7.60;6.90;;;33.80;96.70;;;;;;4873364;29;20045;-75
2022/07/21 10:47:14;;;;;;;6.53;5.93;;;33.80;96.70;;;;;;4872564;29;20044;-76
2022/07/21 10:49:54;;;;;;;6.75;6.15;;;34.00;96.70;;;;;;4858145;29;20144;-75
2022/07/21 10:52:58;;;;;;;6.95;6.25;;;34.10;96.70;;;;;;4868040;29;20152;-76
2022/07/21 10:55:28;;;;;;;6.90;6.30;;;34.40;96.70;;;;;;4887280;29;20527;-75
2022/07/21 10:58:15;;;;;;;6.82;6.15;;;34.60;96.70;;;;;;4873498;29;20408;-76
2022/07/21 11:00:51;;;;;;;;;;;34.80;96.70;;;;;;4888128;29;20056;-75
2022/07/21 11:03:23;;;;;;;6.60;5.30;;;34.90;96.40;;;;;;4874728;29;20387;-76
2022/07/21 11:06:16;;;;;;;7.40;5.50;;;34.90;95.50;;;;;;4872432;29;20179;-75
2022/07/21 11:09:04;;;;;;;6.70;5.43;;;35.00;95.90;;;;;;4873892;29;20057;-75
2022/07/21 11:11:33;;;;;;;5.72;4.80;;;35.10;96.50;;;;;;4874967;29;20488;-77
2022/07/21 11:14:07;;;;;;;6.47;4.82;;;35.00;93.60;;;;;;4874251;29;20690;-76
2022/07/21 11:17:23;;;;;;;5.47;4.90;;;35.20;92.90;;;;;;4886251;29;20710;-76
2022/07/21 11:19:53;;;;;;;5.22;4.57;;;35.30;95.10;;;;;;4869810;29;20579;-76
2022/07/21 11:22:22;;;;;;;4.25;3.85;;;35.20;94.30;;;;;;4877212;29;20041;-76
2022/07/21 11:24:56;;;;;;;6.22;4.22;;;35.40;93.00;;;;;;4854496;29;20128;-75
2022/07/21 11:27:31;;;;;;;4.10;3.70;;;35.40;92.30;;;;;;4877037;29;20059;-76
2022/07/21 11:30:02;;;;;;;5.13;3.60;;;35.40;91.80;;;;;;4873634;29;20564;-76
2022/07/21 11:32:32;;;;;;;3.85;2.97;;;35.60;89.70;;;;;;4877287;29;20393;-76
2022/07/21 11:35:03;;;;;;;5.65;3.15;;;35.80;87.40;;;;;;4871683;29;20489;-75
2022/07/21 11:37:33;;;;;;;3.42;2.80;;;35.80;88.30;;;;;;4871830;29;20053;-76
2022/07/21 11:40:07;;;;;;;6.35;3.20;;;35.70;87.90;;;;;;4885653;29;20236;-75
2022/07/21 11:42:36;;;;;;;3.42;3.15;;;35.80;87.40;;;;;;4872955;29;20144;-76
2022/07/21 11:45:07;;;;;;;6.07;3.25;;;35.90;88.90;;;;;;4873070;29;20037;-76
2022/07/21 11:47:37;;;;;;;5.03;2.80;;;35.90;88.20;;;;;;4870558;29;20401;-75
2022/07/21 11:50:11;;;;;;;2.50;2.30;;;35.90;87.30;;;;;;4871627;29;20056;-76
2022/07/21 11:52:41;;;;;;;2.65;2.42;;;36.10;84.50;;;;;;4872026;29;20049;-76
2022/07/21 11:55:12;;;;;;;2.72;2.53;;;36.00;85.70;;;;;;4870561;29;20056;-75
2022/07/21 11:57:42;;;;;;;7.53;2.40;;;35.90;84.30;;;;;;4887253;29;20479;-76
2022/07/21 12:00:12;;;;;;;6.18;2.83;;;36.00;84.20;;;;;;4870985;29;20084;-75
2022/07/21 12:02:43;;;;;;;4.18;3.00;;;36.00;86.30;;;;;;4873542;29;20238;-74
2022/07/21 12:05:13;;;;;;;4.22;3.15;;;36.10;86.60;;;;;;4871154;29;20440;-76
2022/07/21 12:07:43;;;;;;;3.25;3.00;;;36.10;86.70;;;;;;4871693;29;20049;-76
2022/07/21 12:10:15;;;;;;;3.20;2.80;;;36.20;85.40;;;;;;4869843;29;20049;-75
2022/07/21 12:12:45;;;;;;;5.95;3.10;;;36.20;86.80;;;;;;4871730;29;20049;-76
2022/07/21 12:15:16;;;;;;;3.13;2.70;;;36.20;86.20;;;;;;4871304;29;20140;-76
2022/07/21 12:17:49;;;;;;;3.55;2.55;;;36.30;85.10;;;;;;4872101;29;20510;-76
2022/07/21 12:20:25;;;;;;;3.28;2.97;;;36.30;85.60;;;;;;4872413;29;20049;-75
2022/07/21 12:22:55;;;;;;;6.47;3.00;;;36.30;86.20;;;;;;4870885;29;20128;-76
2022/07/21 12:25:33;;;;;;;5.95;2.72;;;36.30;85.40;;;;;;4870775;29;20049;-76
2022/07/21 12:28:03;;;;;;;3.17;2.10;;;36.20;84.60;;;;;;4885701;29;20508;-75
2022/07/21 12:30:36;;;;;;;4.20;3.10;;;36.40;83.30;;;;;;4870178;29;20057;-76
2022/07/21 12:33:09;;;;;;;3.45;2.60;;;36.30;83.10;;;;;;4870933;29;20048;-76
2022/07/21 12:35:39;;;;;;;4.13;2.67;;;36.30;83.30;;;;;;4872277;29;20481;-76
2022/07/21 12:38:09;;;;;;;3.55;2.97;;;36.40;82.50;;;;;;4885972;29;20440;-76
2022/07/21 12:40:40;;;;;;;4.07;3.05;;;36.50;82.60;;;;;;4855524;29;20072;-76
2022/07/21 12:43:28;;;;;;;5.45;2.92;;;36.50;84.40;;;;;;4871544;29;20097;-75
2022/07/21 12:46:00;;;;;;;4.50;2.67;;;36.70;83.40;;;;;;4873657;29;20041;-75
2022/07/21 12:48:31;;;;;;;3.50;2.58;;;36.70;82.20;;;;;;4870660;29;20105;-76
2022/07/21 12:51:06;;;;;;;5.60;2.80;;;36.60;83.10;;;;;;4869467;29;20052;-75
2022/07/21 12:53:36;;;;;;;6.03;2.30;;;36.80;83.20;;;;;;4872200;29;20053;-76
2022/07/21 12:56:05;;;;;;;4.32;2.10;;;36.70;83.00;;;;;;4870350;29;20463;-74
2022/07/21 12:58:33;;;;;;;3.78;2.50;;;36.60;82.90;;;;;;4859519;29;20053;-76
2022/07/21 13:01:02;;;;;;;4.18;2.60;;;36.60;83.30;;;;;;4853800;29;20408;-76
2022/07/21 13:03:34;;;;;;;3.80;2.85;;;36.60;83.10;;;;;;4872458;29;20500;-77
2022/07/21 13:06:04;;;;;;;2.63;2.38;;;36.60;84.70;;;;;;4870789;29;20555;-76